Stone Ridge, NY (12484)

8:16 AM EST on February 24, 2017 (GMT -0500)
SUNY Ulster County Community College | | Change Station

Elev 400 ft 41.85 °N, 74.13 °W | Updated 1 minute ago

Mostly Cloudy
Mostly Cloudy
51.3 °F
Feels Like 51.3 °F
N
2.0
Wind Variable Wind from WSW
Gusts 5.0 mph

Today
High -- | Low -- °F
--% Chance of Precip.
Yesterday
High -- | Low -- °F
Precip. -- in
Pressure 29.90 in
Visibility 6.0 miles
Clouds Clear
Dew Point 49 °F
Humidity 93%
Rainfall 0.00 in
Snow Depth Not available.
6:38 AM 5:41 PM
Waning Crescent, 5% visible
METAR KPOU 241253Z 00000KT 6SM BR CLR 09/09 A2991 RMK AO2 SLP124 T00890089
Pressure 29.90 in
Visibility 6.0 miles
Clouds Clear
Dew Point 49 °F
Humidity 93%
Rainfall 0.00 in
Snow Depth Not available.
6:38 AM 5:41 PM
Waning Crescent, 5% visible
METAR KPOU 241253Z 00000KT 6SM BR CLR 09/09 A2991 RMK AO2 SLP124 T00890089

Get Your Daily Forecast Email!

Thanks for signing up!

Be on the lookout for a verification email in your inbox.

You'll start receiving the daily forecast at 8 AM.

×

10-Day Weather Forecast

Almanac

Astronomy

Feb. 24, 2017 Rise Set
Actual Time
Civil Twilight
Nautical Twilight
Astronomical Twilight
Moon
Length of Visible Light
Length of Day
Tomorrow will be .
, % of the Moon is Illuminated

Today's Extremes

State Highs State Lows

Community

WunderPhotos

Upload Photos

1,962,540 photos uploaded!

WunderBlog® & News

Nearby

Air Quality

  Air Quality AQ Index Pollutant
Not available.

Snow Depth

Station Depth Elevation

Earthquake Activity

City Distance Mag. Time & Date
Minimum magnitude displayed is 2.5.

Coastal Water Temperatures

Place Temperature

Stations

Nearby Weather Stations

Station Location Temp. Windchill Dew Point Humidity Wind Precip. Elev Updated Type
                   

Watches & Warnings

There are currently no watches in effect.